2004 GAFILO (2004061S12072)


On this page: IBTrACS data - Map and Plots - Positions - Intensities - Original source data

Summary

Start Mar 1
End Mar 18
Basin SI
LMI 140 kt
Sources jtwc_sh
reunion
neumann
In WMO? Yes
Previous storm 2004 EVAN (SP)
Previous in basin 2004 EVAN (SP)
Concurrent storms 2004 IVY (SP)
2004 MONTY (SI)
2004 EVAN (SP)
2004 GAFILO (SI)
2004 HELMA (SI)
2004 FAY (SP)
2004 TD0318 (WP)
Next in basin 2004 HELMA (SI)
Next storm 2004 HELMA (SI)

top of page IBTrACS Data: File Access

top of page HURSAT Data: File Access

Image of storm

top of page Plots:

Map of storm track will not appear if FTP is down
Time series of cyclone Maximum Sustained Wind will not appear if FTP is down
Time series of cyclone Minimum Central Pressure will not appear if FTP is down

top of page Track Data:Position

jtwc_sh reunion neumann
Date Lat Lon Lat Lon Lat Lon
2004-03-01 06:00:00 -11.6 72.2 -11.6 72.2
2004-03-01 12:00:00 -11.6 71.8 -11.7 72.4 -11.6 71.8
2004-03-01 18:00:00 -11.7 71.3 -12.2 72.5 -11.7 71.3
2004-03-02 00:00:00 -12.2 70.9 -12.7 71.6 -12.2 70.9
2004-03-02 06:00:00 -13.1 70.6 -13.0 70.9 -13.1 70.6
2004-03-02 12:00:00 -13.8 69.8 -13.8 69.7 -13.8 69.8
2004-03-02 18:00:00 -14.1 68.2 -13.8 67.6 -14.1 68.2
2004-03-03 00:00:00 -13.9 66.2 -13.6 65.4 -13.9 66.2
2004-03-03 06:00:00 -13.4 64.0 -13.3 63.7 -13.4 64.0
2004-03-03 12:00:00 -13.1 62.4 -12.9 61.9 -13.1 62.4
2004-03-03 18:00:00 -12.7 61.1 -12.6 61.0 -12.7 61.1
2004-03-04 00:00:00 -12.3 60.1 -12.3 60.3 -12.3 60.1
2004-03-04 06:00:00 -12.2 59.4 -12.2 59.6 -12.2 59.4
2004-03-04 12:00:00 -12.5 58.7 -12.6 58.9 -12.5 58.7
2004-03-04 18:00:00 -12.9 58.0 -12.9 58.0 -12.9 58.0
2004-03-05 00:00:00 -13.2 57.4 -13.1 57.3 -13.2 57.4
2004-03-05 06:00:00 -13.5 56.7 -13.4 56.7 -13.5 56.7
2004-03-05 12:00:00 -13.9 56.0 -14.0 55.9 -13.9 56.0
2004-03-05 18:00:00 -14.2 55.2 -14.3 55.1 -14.2 55.2
2004-03-06 00:00:00 -14.5 54.3 -14.5 54.1 -14.5 54.3
2004-03-06 06:00:00 -14.7 53.5 -14.6 53.3 -14.7 53.5
2004-03-06 12:00:00 -14.9 52.6 -14.8 52.5 -14.9 52.6
2004-03-06 18:00:00 -15.0 51.6 -14.9 51.6 -15.0 51.6
2004-03-07 00:00:00 -15.0 50.5 -15.1 50.5 -15.0 50.5
2004-03-07 06:00:00 -15.1 49.2 -15.3 49.5 -15.1 49.2
jtwc_sh reunion neumann
2004-03-07 12:00:00 -15.7 47.9 -16.1 47.6 -15.7 47.9
2004-03-07 18:00:00 -16.3 46.6 -16.9 46.4 -16.3 46.6
2004-03-08 00:00:00 -17.0 45.3 -17.4 45.5 -17.0 45.3
2004-03-08 06:00:00 -17.8 44.1 -17.9 44.1 -17.8 44.1
2004-03-08 12:00:00 -18.4 43.3 -18.4 43.2 -18.4 43.3
2004-03-08 18:00:00 -18.8 42.8 -18.8 42.7 -18.8 42.8
2004-03-09 00:00:00 -19.2 42.5 -19.4 42.2 -19.2 42.5
2004-03-09 06:00:00 -19.6 42.2 -19.7 42.2 -19.6 42.2
2004-03-09 12:00:00 -20.3 42.6 -20.0 42.6 -20.3 42.6
2004-03-09 18:00:00 -20.9 43.2 -20.9 43.4 -20.9 43.2
2004-03-10 00:00:00 -21.7 44.0 -21.7 44.3 -21.7 44.0
2004-03-10 06:00:00 -22.4 45.0 -22.6 45.0 -22.4 45.0
2004-03-10 12:00:00 -23.1 45.3 -23.2 45.5 -23.1 45.3
2004-03-10 18:00:00 -23.4 45.8 -23.7 45.6 -23.4 45.8
2004-03-11 00:00:00 -23.7 46.3 -24.1 45.4 -23.7 46.3
2004-03-11 06:00:00 -24.1 46.5 -23.8 45.1 -24.1 46.5
2004-03-11 12:00:00 -24.3 46.7 -23.0 44.9 -24.3 46.7
2004-03-11 18:00:00 -22.5 45.1
2004-03-12 00:00:00 -22.1 45.3
2004-03-12 06:00:00 -21.8 45.7
2004-03-12 12:00:00 -22.2 46.6
2004-03-12 18:00:00 -22.5 47.3
2004-03-13 00:00:00 -22.8 47.7
2004-03-13 06:00:00 -23.1 48.2
jtwc_sh reunion neumann
2004-03-13 12:00:00 -23.6 49.2
2004-03-13 18:00:00 -24.2 51.1
2004-03-14 00:00:00 -24.9 53.1
2004-03-14 06:00:00 -25.6 55.0
2004-03-14 12:00:00 -26.4 56.8
2004-03-14 18:00:00 -27.1 58.3
2004-03-15 00:00:00 -27.9 60.6
2004-03-15 06:00:00 -28.1 62.4
2004-03-15 12:00:00 -27.9 63.9
2004-03-15 18:00:00 -27.6 66.1
2004-03-16 00:00:00 -27.2 67.9
2004-03-16 06:00:00 -26.9 69.3
2004-03-16 12:00:00 -26.2 69.3
2004-03-16 18:00:00 -25.8 68.7
2004-03-17 00:00:00 -25.6 67.7
2004-03-17 06:00:00 -25.4 66.4
2004-03-17 12:00:00 -25.1 64.9
2004-03-17 18:00:00 -25.0 63.3
2004-03-18 00:00:00 -24.8 61.6
2004-03-18 06:00:00 -24.7 60.1

top of pageTrack Data:Intensity

jtwc_sh reunion neumann
Date Wind Pres Wind Pres Wind Pres
2004-03-01 06:00:00 20. 1004. 20.
2004-03-01 12:00:00 20. 1004. 20. 1005. 20.
2004-03-01 18:00:00 20. 1004. 20. 1004. 20.
2004-03-02 00:00:00 25. 1002. 25. 1003. 25.
2004-03-02 06:00:00 25. 1002. 25. 1003. 25.
2004-03-02 12:00:00 30. 1000. 25. 1002. 30.
2004-03-02 18:00:00 30. 1000. 25. 1000. 30.
2004-03-03 00:00:00 35. 1000. 30. 998. 35.
2004-03-03 06:00:00 45. 991. 40. 992. 45.
2004-03-03 12:00:00 55. 984. 45. 987. 55.
2004-03-03 18:00:00 65. 976. 50. 984. 65.
2004-03-04 00:00:00 65. 976. 53. 980. 65.
2004-03-04 06:00:00 65. 976. 55. 978. 65.
2004-03-04 12:00:00 75. 967. 65. 970. 75.
2004-03-04 18:00:00 75. 967. 65. 970. 75.
2004-03-05 00:00:00 75. 967. 70. 965. 75.
2004-03-05 06:00:00 90. 954. 75. 960. 90.
2004-03-05 12:00:00 125. 916. 83. 950. 125.
2004-03-05 18:00:00 125. 916. 100. 930. 125.
2004-03-06 00:00:00 135. 904. 110. 915. 135.
2004-03-06 06:00:00 140. 898. 120. 900. 140.
2004-03-06 12:00:00 140. 898. 125. 895. 140.
2004-03-06 18:00:00 140. 898. 125. 895. 140.
2004-03-07 00:00:00 130. 910. 120. 905. 130.
2004-03-07 06:00:00 115. 927. 80. 955. 115.
jtwc_sh reunion neumann
2004-03-07 12:00:00 90. 954. 75. 970. 90.
2004-03-07 18:00:00 75. 967. 70. 980. 75.
2004-03-08 00:00:00 65. 976. 65. 988. 65.
2004-03-08 06:00:00 65. 976. 50. 992. 65.
2004-03-08 12:00:00 65. 976. 45. 990. 65.
2004-03-08 18:00:00 65. 976. 45. 988. 65.
2004-03-09 00:00:00 65. 976. 45. 987. 65.
2004-03-09 06:00:00 65. 976. 45. 987. 65.
2004-03-09 12:00:00 60. 980. 50. 984. 60.
2004-03-09 18:00:00 60. 980. 55. 980. 60.
2004-03-10 00:00:00 55. 984. 45. 983. 55.
2004-03-10 06:00:00 45. 991. 40. 985. 45.
2004-03-10 12:00:00 40. 994. 37. 987. 40.
2004-03-10 18:00:00 40. 994. 35. 988. 40.
2004-03-11 00:00:00 30. 1000. 35. 988. 30.
2004-03-11 06:00:00 30. 1000. 30. 990. 30.
2004-03-11 12:00:00 30. 1000. 27. 992. 30.
2004-03-11 18:00:00 27. 993.
2004-03-12 00:00:00 25. 994.
2004-03-12 06:00:00 25. 995.
2004-03-12 12:00:00 25. 996.
2004-03-12 18:00:00 25. 998.
2004-03-13 00:00:00 25. 1000.
2004-03-13 06:00:00 20. 1001.
jtwc_sh reunion neumann
2004-03-13 12:00:00 20. 1001.
2004-03-13 18:00:00 20. 1001.
2004-03-14 00:00:00 25. 1000.
2004-03-14 06:00:00 30. 999.
2004-03-14 12:00:00 30. 999.
2004-03-14 18:00:00 35. 998.
2004-03-15 00:00:00 35. 998.
2004-03-15 06:00:00 30. 1000.
2004-03-15 12:00:00 30. 1000.
2004-03-15 18:00:00 30. 1002.
2004-03-16 00:00:00 30. 1004.
2004-03-16 06:00:00 25. 1006.
2004-03-16 12:00:00 25. 1006.
2004-03-16 18:00:00 25. 1007.
2004-03-17 00:00:00 25. 1007.
2004-03-17 06:00:00 25. 1008.
2004-03-17 12:00:00 25. 1008.
2004-03-17 18:00:00 20. 1010.
2004-03-18 00:00:00 20. 1010.
2004-03-18 06:00:00 20. 1012.

top of page Links to source data

Source Source file Format
jtwc_sh bsh162004.txt ATCF
reunion Best-Tracks-NewWMOFormat.txt:Line=336:GAFILO WMO (old format)
neumann tracks.sh:Storm=1295:GAFILO:BSH162004:JTWC HURDAT